Surbiton, United Kingdom

3:36 AM GMT on December 21, 2014 (GMT +0000)
Chessington | Change Station
CLOSE
Current Station
Personal Weather Station
Location: Chessington, Surrey
Elevation: 105 ft
Nearby Weather Stations

Elev 105 ft 51.37 °N, 0.30 °W | Updated 7 seconds ago

Mostly Cloudy
Mostly Cloudy
44.6 °F
Feels Like 40 °F
N
7.6
Wind Variable Wind from SSW
Gusts 10.5 mph

Today
High -- | Low -- °F
--% Chance of Precip.
Yesterday
High -- | Low -- °F
Precip. -- in
8:03 AM 3:54 PM
Waning Crescent, 1% visible
Pressure 30.42 in
Visibility 6.2 miles
Clouds Mostly Cloudy 2500 ft
Windchill 40 °F
Dew Point 42 °F
Humidity 90%
Rainfall 0.00 in
Snow Depth Not available.
UV 0 out of 12
Pollen Not available.
Air Quality Not available.
Flu Activity Not available.
METAR EGLL 210320Z 23010KT 9999 BKN025 07/05 Q1030 NOSIG

More Conditions Fewer Conditions

Pressure 30.42 in
Visibility 6.2 miles
Clouds Mostly Cloudy 2500 ft
Windchill 40 °F
Dew Point 42 °F
Humidity 90%
Rainfall 0.00 in
Snow Depth Not available.
UV 0 out of 12
Pollen Not available.
Air Quality Not available.
Flu Activity Not available.
METAR EGLL 210320Z 23010KT 9999 BKN025 07/05 Q1030 NOSIG

More Conditions Fewer Conditions

10-Day Weather Forecast

Almanac

Astronomy

Dec. 21, 2014 Rise Set
Actual Time
Civil Twilight
Nautical Twilight
Astronomical Twilight
Moon
Length of Visible Light
Length of Day
Tomorrow will be .
, % of the Moon is Illuminated

Today's Extremes

Country Highs Country Lows

Community

WunderPhotos

Upload Photos

1,779,352 photos uploaded!

WunderBlogs® & News

Nearby

Air Quality

  Air Quality AQ Index Pollutant
Not available.

Snow Depth

Station Depth Elevation

Earthquake Activity

City Distance Mag. Time & Date
Minimum magnitude displayed is 2.5.

Coastal Water Temperatures

Place Temperature

Nearby Weather Stations